createdAt,value
2023-03-24T00:04:30.514Z,6.60
2023-03-24T00:14:56.744Z,7.70
2023-03-24T00:25:28.332Z,11.60
2023-03-24T00:35:54.287Z,10.10
2023-03-24T00:46:29.355Z,11.20
2023-03-24T00:56:56.023Z,11.00
2023-03-24T01:07:21.858Z,7.90
2023-03-24T01:17:48.876Z,7.20
2023-03-24T01:28:14.685Z,11.00
2023-03-24T01:38:40.892Z,9.50
2023-03-24T01:49:09.103Z,11.60
2023-03-24T01:59:37.957Z,10.40
2023-03-24T02:10:06.074Z,11.30
2023-03-24T02:32:12.568Z,10.10
2023-03-24T02:42:52.383Z,9.60
2023-03-24T02:53:21.945Z,9.60
2023-03-24T03:03:51.075Z,10.40
2023-03-24T03:14:22.183Z,12.90
2023-03-24T03:24:53.143Z,7.40
2023-03-24T03:35:23.905Z,8.60
2023-03-24T03:45:49.989Z,9.50
2023-03-24T03:56:18.356Z,10.00
2023-03-24T04:06:53.946Z,13.30
2023-03-24T04:17:36.264Z,12.60
2023-03-24T04:28:10.923Z,12.70
2023-03-24T04:38:38.469Z,15.00
2023-03-24T04:49:05.110Z,12.00
2023-03-24T04:59:34.146Z,12.60
2023-03-24T05:09:59.884Z,10.10
2023-03-24T05:20:25.632Z,11.00
2023-03-24T05:30:51.254Z,9.80
2023-03-24T05:41:17.400Z,10.50
2023-03-24T05:51:42.970Z,11.00
2023-03-24T06:02:08.894Z,10.80
2023-03-24T06:12:35.005Z,11.10
2023-03-24T06:23:01.073Z,26.60
2023-03-24T06:33:27.020Z,13.20
2023-03-24T06:43:52.885Z,15.00
2023-03-24T06:54:19.358Z,15.30
2023-03-24T07:04:46.007Z,16.80
2023-03-24T07:15:13.073Z,39.80
2023-03-24T07:25:40.792Z,35.40
2023-03-24T07:36:07.667Z,17.00
2023-03-24T07:46:33.696Z,19.80
2023-03-24T07:56:59.538Z,13.90
2023-03-24T08:07:25.085Z,15.60
2023-03-24T08:17:52.555Z,13.90
2023-03-24T08:28:18.743Z,13.60
2023-03-24T08:38:44.682Z,11.90
2023-03-24T08:49:11.287Z,10.60
2023-03-24T08:59:36.944Z,9.10
2023-03-24T09:10:02.868Z,8.90
2023-03-24T09:20:29.063Z,8.60
2023-03-24T09:31:00.931Z,7.90
2023-03-24T09:41:31.936Z,9.90
2023-03-24T09:52:05.736Z,9.10
2023-03-24T10:02:32.314Z,7.40
2023-03-24T10:13:05.205Z,11.00
2023-03-24T10:23:37.897Z,12.00
2023-03-24T10:34:04.343Z,11.70
2023-03-24T10:44:31.229Z,12.70
2023-03-24T10:55:06.638Z,8.60
2023-03-24T11:05:36.472Z,10.40
2023-03-24T11:16:12.068Z,8.20
2023-03-24T11:26:39.662Z,10.80
2023-03-24T11:37:08.390Z,9.50
2023-03-24T11:47:38.418Z,11.40
2023-03-24T11:58:10.953Z,9.80
2023-03-24T12:08:51.004Z,11.70
2023-03-24T12:19:50.797Z,9.80
2023-03-24T12:30:26.618Z,11.10
2023-03-24T12:41:33.438Z,9.00
2023-03-24T12:52:20.432Z,10.90
2023-03-24T13:02:49.976Z,8.90
2023-03-24T13:13:23.124Z,9.80
2023-03-24T13:23:55.353Z,11.00
2023-03-24T13:34:31.309Z,9.30
2023-03-24T13:44:57.111Z,10.90
2023-03-24T13:55:28.762Z,11.90
2023-03-24T14:06:02.332Z,13.90
2023-03-24T14:16:50.409Z,14.90
2023-03-24T14:27:34.520Z,10.40
2023-03-24T14:38:04.575Z,8.90
2023-03-24T14:48:51.989Z,9.00
2023-03-24T14:59:30.746Z,9.10
2023-03-24T15:09:56.450Z,8.40
2023-03-24T15:20:27.992Z,9.00
2023-03-24T15:30:54.704Z,11.00
2023-03-24T15:41:23.907Z,8.30
2023-03-24T15:51:51.923Z,10.20
2023-03-24T16:02:26.932Z,6.40
2023-03-24T16:12:53.023Z,10.20
2023-03-24T16:23:18.773Z,11.10
2023-03-24T16:33:44.801Z,11.40
2023-03-24T16:44:11.089Z,10.40
2023-03-24T16:54:37.244Z,7.70
2023-03-24T17:05:03.045Z,8.20
2023-03-24T17:15:31.022Z,8.30
2023-03-24T17:25:56.962Z,15.90
2023-03-24T17:36:22.590Z,13.90
2023-03-24T17:46:48.439Z,11.70
2023-03-24T17:57:14.687Z,12.70
2023-03-24T18:07:40.952Z,14.80
2023-03-24T18:18:07.519Z,15.50
2023-03-24T18:28:33.486Z,15.60
2023-03-24T18:39:01.338Z,16.40
2023-03-24T18:49:26.943Z,19.90
2023-03-24T18:59:53.384Z,15.30
2023-03-24T19:10:19.665Z,18.10
2023-03-24T19:20:45.592Z,17.60
2023-03-24T19:31:15.177Z,12.00
2023-03-24T19:41:40.916Z,7.60
2023-03-24T19:52:07.052Z,8.60
2023-03-24T20:02:32.866Z,9.00
2023-03-24T20:12:58.659Z,9.60
2023-03-24T20:23:24.387Z,11.60
2023-03-24T20:33:50.102Z,13.00
2023-03-24T20:44:16.213Z,8.10
2023-03-24T20:54:42.296Z,10.40
2023-03-24T21:05:09.319Z,6.90
2023-03-24T21:15:35.645Z,9.30
2023-03-24T21:26:01.928Z,9.30
2023-03-24T21:36:30.031Z,8.40
2023-03-24T21:46:56.657Z,7.40
2023-03-24T21:57:22.628Z,7.70
2023-03-24T22:07:49.659Z,7.40
2023-03-24T22:18:15.951Z,7.70
2023-03-24T22:28:42.605Z,7.10
2023-03-24T22:39:08.545Z,7.70
2023-03-24T22:49:36.872Z,6.80
2023-03-24T23:00:03.254Z,4.20
2023-03-24T23:10:29.205Z,3.60
2023-03-24T23:21:04.489Z,6.50
2023-03-24T23:31:30.680Z,3.80
2023-03-24T23:41:56.349Z,4.50
2023-03-24T23:52:21.707Z,4.00
